sensor_id;sensor_type;location;lat;lon;timestamp;temperature;humidity
36660;DHT22;22654;51.054;3.654;2023-06-22T00:01:56;17.80;99.90
36660;DHT22;22654;51.054;3.654;2023-06-22T00:04:22;17.60;99.90
36660;DHT22;22654;51.054;3.654;2023-06-22T00:06:48;17.50;99.90
36660;DHT22;22654;51.054;3.654;2023-06-22T00:09:13;17.20;99.90
36660;DHT22;22654;51.054;3.654;2023-06-22T00:11:39;17.00;99.90
36660;DHT22;22654;51.054;3.654;2023-06-22T00:14:05;16.80;99.90
36660;DHT22;22654;51.054;3.654;2023-06-22T00:16:34;16.70;99.90
36660;DHT22;22654;51.054;3.654;2023-06-22T00:19:00;16.60;99.90
36660;DHT22;22654;51.054;3.654;2023-06-22T00:21:28;16.50;99.90
36660;DHT22;22654;51.054;3.654;2023-06-22T00:23:53;16.60;99.90
36660;DHT22;22654;51.054;3.654;2023-06-22T00:26:20;16.70;99.90
36660;DHT22;22654;51.054;3.654;2023-06-22T00:28:47;16.70;99.90
36660;DHT22;22654;51.054;3.654;2023-06-22T00:31:13;16.70;99.90
36660;DHT22;22654;51.054;3.654;2023-06-22T00:33:39;16.80;99.90
36660;DHT22;22654;51.054;3.654;2023-06-22T00:36:05;16.70;99.90
36660;DHT22;22654;51.054;3.654;2023-06-22T00:38:34;16.60;99.90
36660;DHT22;22654;51.054;3.654;2023-06-22T00:41:01;16.70;99.90
36660;DHT22;22654;51.054;3.654;2023-06-22T00:43:26;16.70;99.90
36660;DHT22;22654;51.054;3.654;2023-06-22T00:45:52;16.70;99.90
36660;DHT22;22654;51.054;3.654;2023-06-22T00:48:22;16.80;99.90
36660;DHT22;22654;51.054;3.654;2023-06-22T00:50:48;16.60;99.90
36660;DHT22;22654;51.054;3.654;2023-06-22T00:53:16;16.40;99.90
36660;DHT22;22654;51.054;3.654;2023-06-22T00:55:44;16.30;99.90
36660;DHT22;22654;51.054;3.654;2023-06-22T00:58:13;16.20;99.90
36660;DHT22;22654;51.054;3.654;2023-06-22T01:00:40;16.10;99.90
36660;DHT22;22654;51.054;3.654;2023-06-22T01:03:07;16.00;99.90
36660;DHT22;22654;51.054;3.654;2023-06-22T01:05:35;16.10;99.90
36660;DHT22;22654;51.054;3.654;2023-06-22T01:11:10;16.70;99.90
36660;DHT22;22654;51.054;3.654;2023-06-22T01:16:13;16.20;99.90
36660;DHT22;22654;51.054;3.654;2023-06-22T01:18:42;16.30;99.90
36660;DHT22;22654;51.054;3.654;2023-06-22T01:21:12;16.30;99.90
36660;DHT22;22654;51.054;3.654;2023-06-22T01:29:06;15.80;99.90
36660;DHT22;22654;51.054;3.654;2023-06-22T01:31:34;15.70;99.90
36660;DHT22;22654;51.054;3.654;2023-06-22T01:34:03;15.90;99.90
36660;DHT22;22654;51.054;3.654;2023-06-22T01:36:31;16.20;99.90
36660;DHT22;22654;51.054;3.654;2023-06-22T01:38:58;16.30;99.90
36660;DHT22;22654;51.054;3.654;2023-06-22T01:41:29;16.20;99.90
36660;DHT22;22654;51.054;3.654;2023-06-22T01:43:55;16.10;99.90
36660;DHT22;22654;51.054;3.654;2023-06-22T01:46:22;15.80;99.90
36660;DHT22;22654;51.054;3.654;2023-06-22T01:48:49;15.70;99.90
36660;DHT22;22654;51.054;3.654;2023-06-22T01:51:16;15.60;99.90
36660;DHT22;22654;51.054;3.654;2023-06-22T01:53:42;15.60;99.90
36660;DHT22;22654;51.054;3.654;2023-06-22T01:56:08;15.40;99.90
36660;DHT22;22654;51.054;3.654;2023-06-22T01:58:36;15.40;99.90
36660;DHT22;22654;51.054;3.654;2023-06-22T02:01:14;15.50;99.90
36660;DHT22;22654;51.054;3.654;2023-06-22T02:03:48;15.50;99.90
36660;DHT22;22654;51.054;3.654;2023-06-22T02:06:23;15.40;99.90
36660;DHT22;22654;51.054;3.654;2023-06-22T02:08:56;15.30;99.90
36660;DHT22;22654;51.054;3.654;2023-06-22T02:11:24;15.50;99.90
36660;DHT22;22654;51.054;3.654;2023-06-22T02:13:53;15.60;99.90
36660;DHT22;22654;51.054;3.654;2023-06-22T02:16:20;15.50;99.90
36660;DHT22;22654;51.054;3.654;2023-06-22T02:18:47;15.40;99.90
36660;DHT22;22654;51.054;3.654;2023-06-22T02:21:19;15.30;99.90
36660;DHT22;22654;51.054;3.654;2023-06-22T02:23:46;15.40;99.90
36660;DHT22;22654;51.054;3.654;2023-06-22T02:26:12;15.50;99.90
36660;DHT22;22654;51.054;3.654;2023-06-22T02:28:38;15.50;99.90
36660;DHT22;22654;51.054;3.654;2023-06-22T02:31:04;15.60;99.90
36660;DHT22;22654;51.054;3.654;2023-06-22T02:33:33;15.70;99.90
36660;DHT22;22654;51.054;3.654;2023-06-22T02:35:59;15.70;99.90
36660;DHT22;22654;51.054;3.654;2023-06-22T02:38:25;15.90;99.90
36660;DHT22;22654;51.054;3.654;2023-06-22T02:40:51;16.20;99.90
36660;DHT22;22654;51.054;3.654;2023-06-22T02:43:17;16.20;99.90
36660;DHT22;22654;51.054;3.654;2023-06-22T02:45:44;16.20;99.90
36660;DHT22;22654;51.054;3.654;2023-06-22T02:48:11;16.10;99.90
36660;DHT22;22654;51.054;3.654;2023-06-22T02:50:37;16.10;99.90
36660;DHT22;22654;51.054;3.654;2023-06-22T02:53:04;15.80;99.90
36660;DHT22;22654;51.054;3.654;2023-06-22T02:55:34;15.80;99.90
36660;DHT22;22654;51.054;3.654;2023-06-22T02:58:06;15.90;99.90
36660;DHT22;22654;51.054;3.654;2023-06-22T03:00:36;15.90;99.90
36660;DHT22;22654;51.054;3.654;2023-06-22T03:03:01;15.60;99.90
36660;DHT22;22654;51.054;3.654;2023-06-22T03:05:27;15.40;99.90
36660;DHT22;22654;51.054;3.654;2023-06-22T03:07:54;15.20;99.90
36660;DHT22;22654;51.054;3.654;2023-06-22T03:10:21;15.00;99.90
36660;DHT22;22654;51.054;3.654;2023-06-22T03:12:47;14.90;99.90
36660;DHT22;22654;51.054;3.654;2023-06-22T03:15:13;14.90;99.90
36660;DHT22;22654;51.054;3.654;2023-06-22T03:17:40;14.90;99.90
36660;DHT22;22654;51.054;3.654;2023-06-22T03:20:08;14.80;99.90
36660;DHT22;22654;51.054;3.654;2023-06-22T03:22:36;14.80;99.90
36660;DHT22;22654;51.054;3.654;2023-06-22T03:25:02;14.90;99.90
36660;DHT22;22654;51.054;3.654;2023-06-22T03:27:29;15.30;99.90
36660;DHT22;22654;51.054;3.654;2023-06-22T03:29:56;15.20;99.90
36660;DHT22;22654;51.054;3.654;2023-06-22T03:32:22;15.10;99.90
36660;DHT22;22654;51.054;3.654;2023-06-22T03:34:48;15.10;99.90
36660;DHT22;22654;51.054;3.654;2023-06-22T03:37:16;15.00;99.90
36660;DHT22;22654;51.054;3.654;2023-06-22T03:39:42;15.00;99.90
36660;DHT22;22654;51.054;3.654;2023-06-22T03:42:08;14.90;99.90
36660;DHT22;22654;51.054;3.654;2023-06-22T03:44:35;14.80;99.90
36660;DHT22;22654;51.054;3.654;2023-06-22T03:47:03;14.80;99.90
36660;DHT22;22654;51.054;3.654;2023-06-22T03:49:29;14.80;99.90
36660;DHT22;22654;51.054;3.654;2023-06-22T03:51:55;15.00;99.90
36660;DHT22;22654;51.054;3.654;2023-06-22T03:54:21;15.10;99.90
36660;DHT22;22654;51.054;3.654;2023-06-22T03:56:47;15.10;99.90
36660;DHT22;22654;51.054;3.654;2023-06-22T03:59:12;15.20;99.90
36660;DHT22;22654;51.054;3.654;2023-06-22T04:01:38;15.40;99.90
36660;DHT22;22654;51.054;3.654;2023-06-22T04:04:05;15.50;99.90
36660;DHT22;22654;51.054;3.654;2023-06-22T04:06:31;15.80;99.90
36660;DHT22;22654;51.054;3.654;2023-06-22T04:08:56;16.20;99.90
36660;DHT22;22654;51.054;3.654;2023-06-22T04:11:22;16.00;99.90
36660;DHT22;22654;51.054;3.654;2023-06-22T04:13:48;15.80;99.90
36660;DHT22;22654;51.054;3.654;2023-06-22T04:16:14;15.80;99.90
36660;DHT22;22654;51.054;3.654;2023-06-22T04:18:40;16.10;99.90
36660;DHT22;22654;51.054;3.654;2023-06-22T04:21:07;16.10;99.90
36660;DHT22;22654;51.054;3.654;2023-06-22T04:23:33;16.30;99.90
36660;DHT22;22654;51.054;3.654;2023-06-22T04:25:59;16.60;99.90
36660;DHT22;22654;51.054;3.654;2023-06-22T04:28:25;16.60;99.90
36660;DHT22;22654;51.054;3.654;2023-06-22T04:30:50;16.40;99.90
36660;DHT22;22654;51.054;3.654;2023-06-22T04:33:16;16.80;99.90
36660;DHT22;22654;51.054;3.654;2023-06-22T04:35:45;17.20;99.90
36660;DHT22;22654;51.054;3.654;2023-06-22T04:38:12;17.30;99.90
36660;DHT22;22654;51.054;3.654;2023-06-22T04:40:41;17.30;99.90
36660;DHT22;22654;51.054;3.654;2023-06-22T04:43:07;17.40;99.90
36660;DHT22;22654;51.054;3.654;2023-06-22T04:45:35;17.50;99.90
36660;DHT22;22654;51.054;3.654;2023-06-22T04:48:04;17.40;99.90
36660;DHT22;22654;51.054;3.654;2023-06-22T04:50:30;17.50;99.90
36660;DHT22;22654;51.054;3.654;2023-06-22T04:52:56;17.80;99.90
36660;DHT22;22654;51.054;3.654;2023-06-22T04:55:23;18.00;99.90
36660;DHT22;22654;51.054;3.654;2023-06-22T04:57:51;18.00;99.90
36660;DHT22;22654;51.054;3.654;2023-06-22T05:00:18;18.00;99.90
36660;DHT22;22654;51.054;3.654;2023-06-22T05:02:46;18.10;99.90
36660;DHT22;22654;51.054;3.654;2023-06-22T05:05:13;18.20;99.90
36660;DHT22;22654;51.054;3.654;2023-06-22T05:07:41;18.60;99.90
36660;DHT22;22654;51.054;3.654;2023-06-22T05:10:11;19.10;99.90
36660;DHT22;22654;51.054;3.654;2023-06-22T05:12:41;19.30;99.90
36660;DHT22;22654;51.054;3.654;2023-06-22T05:15:08;19.20;99.90
36660;DHT22;22654;51.054;3.654;2023-06-22T05:17:34;19.30;99.90
36660;DHT22;22654;51.054;3.654;2023-06-22T05:20:01;19.60;99.90
36660;DHT22;22654;51.054;3.654;2023-06-22T05:22:27;19.90;99.90
36660;DHT22;22654;51.054;3.654;2023-06-22T05:24:53;20.10;99.90
36660;DHT22;22654;51.054;3.654;2023-06-22T05:27:18;20.40;99.90
36660;DHT22;22654;51.054;3.654;2023-06-22T05:29:44;20.60;99.90
36660;DHT22;22654;51.054;3.654;2023-06-22T05:32:10;21.00;99.90
36660;DHT22;22654;51.054;3.654;2023-06-22T05:34:36;21.10;99.90
36660;DHT22;22654;51.054;3.654;2023-06-22T05:37:03;21.10;99.90
36660;DHT22;22654;51.054;3.654;2023-06-22T05:39:29;21.20;99.90
36660;DHT22;22654;51.054;3.654;2023-06-22T05:41:54;21.40;99.90
36660;DHT22;22654;51.054;3.654;2023-06-22T05:44:20;21.40;99.90
36660;DHT22;22654;51.054;3.654;2023-06-22T05:46:46;21.30;99.90
36660;DHT22;22654;51.054;3.654;2023-06-22T05:49:14;21.20;99.90
36660;DHT22;22654;51.054;3.654;2023-06-22T05:51:41;21.10;99.90
36660;DHT22;22654;51.054;3.654;2023-06-22T05:54:06;21.30;99.90
36660;DHT22;22654;51.054;3.654;2023-06-22T05:56:34;21.50;99.90
36660;DHT22;22654;51.054;3.654;2023-06-22T05:59:00;21.60;99.90
36660;DHT22;22654;51.054;3.654;2023-06-22T06:01:26;21.70;99.90
36660;DHT22;22654;51.054;3.654;2023-06-22T06:03:52;21.70;99.90
36660;DHT22;22654;51.054;3.654;2023-06-22T06:06:18;21.80;99.90
36660;DHT22;22654;51.054;3.654;2023-06-22T06:08:46;21.70;99.90
36660;DHT22;22654;51.054;3.654;2023-06-22T06:11:12;21.60;99.90
36660;DHT22;22654;51.054;3.654;2023-06-22T06:13:38;21.50;99.90
36660;DHT22;22654;51.054;3.654;2023-06-22T06:16:04;21.50;99.90
36660;DHT22;22654;51.054;3.654;2023-06-22T06:18:30;21.50;99.90
36660;DHT22;22654;51.054;3.654;2023-06-22T06:20:56;21.60;99.90
36660;DHT22;22654;51.054;3.654;2023-06-22T06:23:21;21.60;99.90
36660;DHT22;22654;51.054;3.654;2023-06-22T06:25:47;21.80;99.90
36660;DHT22;22654;51.054;3.654;2023-06-22T06:28:13;21.90;99.90
36660;DHT22;22654;51.054;3.654;2023-06-22T06:30:39;22.10;99.90
36660;DHT22;22654;51.054;3.654;2023-06-22T06:33:06;22.30;99.90
36660;DHT22;22654;51.054;3.654;2023-06-22T06:35:34;22.60;99.90
36660;DHT22;22654;51.054;3.654;2023-06-22T06:38:00;22.40;99.90
36660;DHT22;22654;51.054;3.654;2023-06-22T06:40:26;22.60;99.90
36660;DHT22;22654;51.054;3.654;2023-06-22T06:42:51;22.90;99.90
36660;DHT22;22654;51.054;3.654;2023-06-22T06:45:22;23.10;99.90
36660;DHT22;22654;51.054;3.654;2023-06-22T06:47:50;23.30;99.90
36660;DHT22;22654;51.054;3.654;2023-06-22T06:50:17;23.40;99.90
36660;DHT22;22654;51.054;3.654;2023-06-22T06:52:43;23.30;99.90
36660;DHT22;22654;51.054;3.654;2023-06-22T06:55:10;23.50;99.90
36660;DHT22;22654;51.054;3.654;2023-06-22T06:57:38;23.80;99.90
36660;DHT22;22654;51.054;3.654;2023-06-22T07:00:09;23.80;99.90
36660;DHT22;22654;51.054;3.654;2023-06-22T07:02:43;24.10;99.90
36660;DHT22;22654;51.054;3.654;2023-06-22T07:05:12;24.20;99.90
36660;DHT22;22654;51.054;3.654;2023-06-22T07:07:38;24.30;99.90
36660;DHT22;22654;51.054;3.654;2023-06-22T07:10:05;24.40;99.90
36660;DHT22;22654;51.054;3.654;2023-06-22T07:12:31;24.50;99.90
36660;DHT22;22654;51.054;3.654;2023-06-22T07:15:05;24.50;99.90
36660;DHT22;22654;51.054;3.654;2023-06-22T07:17:33;24.50;99.90
36660;DHT22;22654;51.054;3.654;2023-06-22T07:19:59;24.40;99.90
36660;DHT22;22654;51.054;3.654;2023-06-22T07:22:25;24.90;99.90
36660;DHT22;22654;51.054;3.654;2023-06-22T07:24:51;25.40;99.90
36660;DHT22;22654;51.054;3.654;2023-06-22T07:27:17;25.80;99.90
36660;DHT22;22654;51.054;3.654;2023-06-22T07:29:45;26.50;99.90
36660;DHT22;22654;51.054;3.654;2023-06-22T07:32:10;26.50;99.90
36660;DHT22;22654;51.054;3.654;2023-06-22T07:34:36;26.40;99.90
36660;DHT22;22654;51.054;3.654;2023-06-22T07:37:02;26.00;99.90
36660;DHT22;22654;51.054;3.654;2023-06-22T07:39:30;25.50;99.90
36660;DHT22;22654;51.054;3.654;2023-06-22T07:41:55;25.20;99.90
36660;DHT22;22654;51.054;3.654;2023-06-22T07:44:21;25.10;99.90
36660;DHT22;22654;51.054;3.654;2023-06-22T07:46:47;25.20;99.90
36660;DHT22;22654;51.054;3.654;2023-06-22T07:49:13;25.20;99.90
36660;DHT22;22654;51.054;3.654;2023-06-22T07:51:39;24.90;99.90
36660;DHT22;22654;51.054;3.654;2023-06-22T07:54:05;24.80;99.90
36660;DHT22;22654;51.054;3.654;2023-06-22T07:56:31;25.00;99.90
36660;DHT22;22654;51.054;3.654;2023-06-22T07:58:57;25.10;99.90
36660;DHT22;22654;51.054;3.654;2023-06-22T08:01:24;25.10;99.90
36660;DHT22;22654;51.054;3.654;2023-06-22T08:03:50;25.10;99.90
36660;DHT22;22654;51.054;3.654;2023-06-22T08:06:16;25.00;99.90
36660;DHT22;22654;51.054;3.654;2023-06-22T08:08:45;24.90;99.90
36660;DHT22;22654;51.054;3.654;2023-06-22T08:11:13;24.70;99.90
36660;DHT22;22654;51.054;3.654;2023-06-22T08:13:39;24.50;99.90
36660;DHT22;22654;51.054;3.654;2023-06-22T08:16:05;24.40;99.90
36660;DHT22;22654;51.054;3.654;2023-06-22T08:18:33;24.40;99.90
36660;DHT22;22654;51.054;3.654;2023-06-22T08:20:59;24.20;99.90
36660;DHT22;22654;51.054;3.654;2023-06-22T08:23:25;24.20;99.90
36660;DHT22;22654;51.054;3.654;2023-06-22T08:25:51;24.10;99.90
36660;DHT22;22654;51.054;3.654;2023-06-22T08:28:16;24.00;99.90
36660;DHT22;22654;51.054;3.654;2023-06-22T08:30:42;23.90;99.90
36660;DHT22;22654;51.054;3.654;2023-06-22T08:33:08;23.90;99.90
36660;DHT22;22654;51.054;3.654;2023-06-22T08:35:34;23.90;99.90
36660;DHT22;22654;51.054;3.654;2023-06-22T08:38:00;23.90;99.90
36660;DHT22;22654;51.054;3.654;2023-06-22T08:40:27;24.00;99.90
36660;DHT22;22654;51.054;3.654;2023-06-22T08:42:54;23.80;99.90
36660;DHT22;22654;51.054;3.654;2023-06-22T08:45:20;23.90;99.90
36660;DHT22;22654;51.054;3.654;2023-06-22T08:47:49;24.00;99.90
36660;DHT22;22654;51.054;3.654;2023-06-22T08:50:15;24.20;99.90
36660;DHT22;22654;51.054;3.654;2023-06-22T08:52:41;24.00;99.90
36660;DHT22;22654;51.054;3.654;2023-06-22T08:55:07;23.70;99.90
36660;DHT22;22654;51.054;3.654;2023-06-22T08:57:34;23.70;99.90
36660;DHT22;22654;51.054;3.654;2023-06-22T09:00:03;23.80;99.90
36660;DHT22;22654;51.054;3.654;2023-06-22T09:02:30;23.70;99.90
36660;DHT22;22654;51.054;3.654;2023-06-22T09:04:57;23.60;99.90
36660;DHT22;22654;51.054;3.654;2023-06-22T09:07:23;23.70;99.90
36660;DHT22;22654;51.054;3.654;2023-06-22T09:09:51;23.70;99.90
36660;DHT22;22654;51.054;3.654;2023-06-22T09:12:18;23.80;99.90
36660;DHT22;22654;51.054;3.654;2023-06-22T09:14:46;23.80;99.90
36660;DHT22;22654;51.054;3.654;2023-06-22T09:17:15;23.90;99.90
36660;DHT22;22654;51.054;3.654;2023-06-22T09:19:40;23.80;99.90
36660;DHT22;22654;51.054;3.654;2023-06-22T09:22:06;23.70;99.90
36660;DHT22;22654;51.054;3.654;2023-06-22T09:24:33;23.70;99.90
36660;DHT22;22654;51.054;3.654;2023-06-22T09:26:58;23.70;99.90
36660;DHT22;22654;51.054;3.654;2023-06-22T09:29:24;23.60;99.90
36660;DHT22;22654;51.054;3.654;2023-06-22T09:31:50;23.60;99.90
36660;DHT22;22654;51.054;3.654;2023-06-22T09:34:19;23.40;99.90
36660;DHT22;22654;51.054;3.654;2023-06-22T09:36:46;23.30;99.90
36660;DHT22;22654;51.054;3.654;2023-06-22T09:39:12;23.40;99.90
36660;DHT22;22654;51.054;3.654;2023-06-22T09:41:38;23.40;99.90
36660;DHT22;22654;51.054;3.654;2023-06-22T09:44:04;23.40;99.90
36660;DHT22;22654;51.054;3.654;2023-06-22T09:46:30;23.50;99.90
36660;DHT22;22654;51.054;3.654;2023-06-22T09:48:56;23.50;99.90
36660;DHT22;22654;51.054;3.654;2023-06-22T09:51:22;23.40;99.90
36660;DHT22;22654;51.054;3.654;2023-06-22T09:53:49;23.20;99.90
36660;DHT22;22654;51.054;3.654;2023-06-22T09:56:16;23.40;99.90
36660;DHT22;22654;51.054;3.654;2023-06-22T09:58:46;23.30;99.90
36660;DHT22;22654;51.054;3.654;2023-06-22T10:01:12;23.30;99.90
36660;DHT22;22654;51.054;3.654;2023-06-22T10:03:40;23.30;99.90
36660;DHT22;22654;51.054;3.654;2023-06-22T10:06:07;23.10;99.90
36660;DHT22;22654;51.054;3.654;2023-06-22T10:08:36;22.90;99.90
36660;DHT22;22654;51.054;3.654;2023-06-22T10:11:05;22.80;99.90
36660;DHT22;22654;51.054;3.654;2023-06-22T10:13:31;22.60;99.90
36660;DHT22;22654;51.054;3.654;2023-06-22T10:15:57;22.40;99.90
36660;DHT22;22654;51.054;3.654;2023-06-22T10:18:23;22.30;99.90
36660;DHT22;22654;51.054;3.654;2023-06-22T10:20:50;22.00;99.90
36660;DHT22;22654;51.054;3.654;2023-06-22T10:23:20;21.80;99.90
36660;DHT22;22654;51.054;3.654;2023-06-22T10:25:46;21.60;99.90
36660;DHT22;22654;51.054;3.654;2023-06-22T10:28:12;21.50;99.90
36660;DHT22;22654;51.054;3.654;2023-06-22T10:30:39;21.30;99.90
36660;DHT22;22654;51.054;3.654;2023-06-22T10:33:07;21.30;99.90
36660;DHT22;22654;51.054;3.654;2023-06-22T10:35:34;21.10;99.90
36660;DHT22;22654;51.054;3.654;2023-06-22T10:38:00;21.20;99.90
36660;DHT22;22654;51.054;3.654;2023-06-22T10:40:26;21.10;99.90
36660;DHT22;22654;51.054;3.654;2023-06-22T10:42:51;21.20;99.90
36660;DHT22;22654;51.054;3.654;2023-06-22T10:45:17;21.10;99.90
36660;DHT22;22654;51.054;3.654;2023-06-22T10:47:44;21.30;99.90
36660;DHT22;22654;51.054;3.654;2023-06-22T10:50:10;21.20;99.90
36660;DHT22;22654;51.054;3.654;2023-06-22T10:52:36;21.10;99.90
36660;DHT22;22654;51.054;3.654;2023-06-22T10:55:01;21.00;99.90
36660;DHT22;22654;51.054;3.654;2023-06-22T10:57:27;20.90;99.90
36660;DHT22;22654;51.054;3.654;2023-06-22T10:59:53;20.90;99.90
36660;DHT22;22654;51.054;3.654;2023-06-22T11:02:19;20.80;99.90
36660;DHT22;22654;51.054;3.654;2023-06-22T11:04:45;20.90;99.90
36660;DHT22;22654;51.054;3.654;2023-06-22T11:07:11;20.90;99.90
36660;DHT22;22654;51.054;3.654;2023-06-22T11:09:44;20.90;99.90
36660;DHT22;22654;51.054;3.654;2023-06-22T11:12:09;20.90;99.90
36660;DHT22;22654;51.054;3.654;2023-06-22T11:14:36;21.00;99.90
36660;DHT22;22654;51.054;3.654;2023-06-22T11:17:01;20.90;99.90
36660;DHT22;22654;51.054;3.654;2023-06-22T11:19:27;20.70;99.90
36660;DHT22;22654;51.054;3.654;2023-06-22T11:21:53;20.90;99.90
36660;DHT22;22654;51.054;3.654;2023-06-22T11:24:19;21.20;99.90
36660;DHT22;22654;51.054;3.654;2023-06-22T11:26:45;21.40;99.90
36660;DHT22;22654;51.054;3.654;2023-06-22T11:29:11;21.60;99.90
36660;DHT22;22654;51.054;3.654;2023-06-22T11:31:36;21.50;99.90
36660;DHT22;22654;51.054;3.654;2023-06-22T11:34:03;21.40;99.90
36660;DHT22;22654;51.054;3.654;2023-06-22T11:36:29;21.20;99.90
36660;DHT22;22654;51.054;3.654;2023-06-22T11:38:58;21.00;99.90
36660;DHT22;22654;51.054;3.654;2023-06-22T11:41:24;20.90;99.90
36660;DHT22;22654;51.054;3.654;2023-06-22T11:43:50;20.80;99.90
36660;DHT22;22654;51.054;3.654;2023-06-22T11:46:15;20.70;99.90
36660;DHT22;22654;51.054;3.654;2023-06-22T11:48:41;20.80;99.90
36660;DHT22;22654;51.054;3.654;2023-06-22T11:51:07;21.00;99.90
36660;DHT22;22654;51.054;3.654;2023-06-22T11:53:34;21.10;99.90
36660;DHT22;22654;51.054;3.654;2023-06-22T11:56:00;21.00;99.90
36660;DHT22;22654;51.054;3.654;2023-06-22T11:58:27;20.90;99.90
36660;DHT22;22654;51.054;3.654;2023-06-22T12:00:54;20.90;99.90
36660;DHT22;22654;51.054;3.654;2023-06-22T12:03:20;20.80;99.90
36660;DHT22;22654;51.054;3.654;2023-06-22T12:05:47;20.90;99.90
36660;DHT22;22654;51.054;3.654;2023-06-22T12:08:13;20.80;99.90
36660;DHT22;22654;51.054;3.654;2023-06-22T12:10:39;20.50;99.90
36660;DHT22;22654;51.054;3.654;2023-06-22T12:13:05;20.40;99.90
36660;DHT22;22654;51.054;3.654;2023-06-22T12:15:31;20.60;99.90
36660;DHT22;22654;51.054;3.654;2023-06-22T12:17:56;20.80;99.90
36660;DHT22;22654;51.054;3.654;2023-06-22T12:20:22;20.90;99.90
36660;DHT22;22654;51.054;3.654;2023-06-22T12:22:48;21.00;99.90
36660;DHT22;22654;51.054;3.654;2023-06-22T12:25:17;21.20;99.90
36660;DHT22;22654;51.054;3.654;2023-06-22T12:27:42;21.40;99.90
36660;DHT22;22654;51.054;3.654;2023-06-22T12:30:08;21.60;99.90
36660;DHT22;22654;51.054;3.654;2023-06-22T12:32:34;21.60;99.90
36660;DHT22;22654;51.054;3.654;2023-06-22T12:35:00;21.60;99.90
36660;DHT22;22654;51.054;3.654;2023-06-22T12:37:26;21.70;99.90
36660;DHT22;22654;51.054;3.654;2023-06-22T12:39:54;21.60;99.90
36660;DHT22;22654;51.054;3.654;2023-06-22T12:42:20;21.60;99.90
36660;DHT22;22654;51.054;3.654;2023-06-22T12:44:46;21.70;99.90
36660;DHT22;22654;51.054;3.654;2023-06-22T12:47:12;21.80;99.90
36660;DHT22;22654;51.054;3.654;2023-06-22T12:49:38;21.70;99.90
36660;DHT22;22654;51.054;3.654;2023-06-22T12:52:09;21.40;99.90
36660;DHT22;22654;51.054;3.654;2023-06-22T12:54:36;21.40;99.90
36660;DHT22;22654;51.054;3.654;2023-06-22T12:57:02;21.30;99.90
36660;DHT22;22654;51.054;3.654;2023-06-22T12:59:28;21.60;99.90
36660;DHT22;22654;51.054;3.654;2023-06-22T13:01:54;21.70;99.90
36660;DHT22;22654;51.054;3.654;2023-06-22T13:04:20;21.70;99.90
36660;DHT22;22654;51.054;3.654;2023-06-22T13:06:47;21.90;99.90
36660;DHT22;22654;51.054;3.654;2023-06-22T13:09:17;21.80;99.90
36660;DHT22;22654;51.054;3.654;2023-06-22T13:11:43;21.90;99.90
36660;DHT22;22654;51.054;3.654;2023-06-22T13:14:09;22.10;99.90
36660;DHT22;22654;51.054;3.654;2023-06-22T13:16:35;21.80;99.90
36660;DHT22;22654;51.054;3.654;2023-06-22T13:19:00;21.70;99.90
36660;DHT22;22654;51.054;3.654;2023-06-22T13:21:26;21.90;99.90
36660;DHT22;22654;51.054;3.654;2023-06-22T13:23:52;22.00;99.90
36660;DHT22;22654;51.054;3.654;2023-06-22T13:26:18;22.00;99.90
36660;DHT22;22654;51.054;3.654;2023-06-22T13:28:44;22.00;99.90
36660;DHT22;22654;51.054;3.654;2023-06-22T13:31:10;22.20;99.90
36660;DHT22;22654;51.054;3.654;2023-06-22T13:33:37;22.50;99.90
36660;DHT22;22654;51.054;3.654;2023-06-22T13:36:03;22.60;99.90
36660;DHT22;22654;51.054;3.654;2023-06-22T13:38:29;22.80;99.90
36660;DHT22;22654;51.054;3.654;2023-06-22T13:40:57;22.90;99.90
36660;DHT22;22654;51.054;3.654;2023-06-22T13:43:27;23.30;99.90
36660;DHT22;22654;51.054;3.654;2023-06-22T13:45:53;23.60;99.90
36660;DHT22;22654;51.054;3.654;2023-06-22T13:48:18;24.10;99.90
36660;DHT22;22654;51.054;3.654;2023-06-22T13:50:44;24.30;99.90
36660;DHT22;22654;51.054;3.654;2023-06-22T13:53:10;24.50;99.90
36660;DHT22;22654;51.054;3.654;2023-06-22T13:55:36;24.80;99.90
36660;DHT22;22654;51.054;3.654;2023-06-22T13:58:02;25.00;99.90
36660;DHT22;22654;51.054;3.654;2023-06-22T14:00:27;25.00;99.90
36660;DHT22;22654;51.054;3.654;2023-06-22T14:02:54;24.90;99.90
36660;DHT22;22654;51.054;3.654;2023-06-22T14:05:20;25.00;99.90
36660;DHT22;22654;51.054;3.654;2023-06-22T14:07:46;25.30;99.90
36660;DHT22;22654;51.054;3.654;2023-06-22T14:10:12;25.70;99.90
36660;DHT22;22654;51.054;3.654;2023-06-22T14:12:38;25.80;99.90
36660;DHT22;22654;51.054;3.654;2023-06-22T14:15:04;25.60;99.90
36660;DHT22;22654;51.054;3.654;2023-06-22T14:17:30;24.60;99.90
36660;DHT22;22654;51.054;3.654;2023-06-22T14:19:56;24.10;99.90
36660;DHT22;22654;51.054;3.654;2023-06-22T14:22:22;23.70;99.90
36660;DHT22;22654;51.054;3.654;2023-06-22T14:24:49;23.60;99.90
36660;DHT22;22654;51.054;3.654;2023-06-22T14:27:15;23.50;99.90
36660;DHT22;22654;51.054;3.654;2023-06-22T14:29:41;23.50;99.90
36660;DHT22;22654;51.054;3.654;2023-06-22T14:32:07;23.60;99.90
36660;DHT22;22654;51.054;3.654;2023-06-22T14:34:33;23.60;99.90
36660;DHT22;22654;51.054;3.654;2023-06-22T14:37:02;23.80;99.90
36660;DHT22;22654;51.054;3.654;2023-06-22T14:39:28;24.10;99.90
36660;DHT22;22654;51.054;3.654;2023-06-22T14:41:54;24.20;99.90
36660;DHT22;22654;51.054;3.654;2023-06-22T14:44:20;24.30;99.90
36660;DHT22;22654;51.054;3.654;2023-06-22T14:46:46;24.40;99.90
36660;DHT22;22654;51.054;3.654;2023-06-22T14:49:11;24.40;99.90
36660;DHT22;22654;51.054;3.654;2023-06-22T14:51:37;24.80;99.90
36660;DHT22;22654;51.054;3.654;2023-06-22T14:54:03;24.70;99.90
36660;DHT22;22654;51.054;3.654;2023-06-22T14:56:29;24.30;99.90
36660;DHT22;22654;51.054;3.654;2023-06-22T14:58:55;24.10;99.90
36660;DHT22;22654;51.054;3.654;2023-06-22T15:01:21;24.20;99.90
36660;DHT22;22654;51.054;3.654;2023-06-22T15:03:47;24.20;99.90
36660;DHT22;22654;51.054;3.654;2023-06-22T15:06:13;24.30;99.90
36660;DHT22;22654;51.054;3.654;2023-06-22T15:08:40;24.00;99.90
36660;DHT22;22654;51.054;3.654;2023-06-22T15:11:06;24.00;99.90
36660;DHT22;22654;51.054;3.654;2023-06-22T15:13:33;24.30;99.90
36660;DHT22;22654;51.054;3.654;2023-06-22T15:16:00;24.20;99.90
36660;DHT22;22654;51.054;3.654;2023-06-22T15:18:26;24.20;99.90
36660;DHT22;22654;51.054;3.654;2023-06-22T15:20:53;23.70;99.90
36660;DHT22;22654;51.054;3.654;2023-06-22T15:23:18;23.50;99.90
36660;DHT22;22654;51.054;3.654;2023-06-22T15:25:44;23.20;99.90
36660;DHT22;22654;51.054;3.654;2023-06-22T15:28:12;23.10;99.90
36660;DHT22;22654;51.054;3.654;2023-06-22T15:30:38;23.00;99.90
36660;DHT22;22654;51.054;3.654;2023-06-22T15:33:04;23.30;99.90
36660;DHT22;22654;51.054;3.654;2023-06-22T15:35:30;23.10;99.90
36660;DHT22;22654;51.054;3.654;2023-06-22T15:37:56;23.00;99.90